sensor_id;sensor_type;location;lat;lon;timestamp;temperature;humidity
46378;DHT22;32083;47.360;9.650;2023-03-05T00:01:41;2.10;99.90
46378;DHT22;32083;47.360;9.650;2023-03-05T00:04:11;2.00;99.90
46378;DHT22;32083;47.360;9.650;2023-03-05T00:06:37;2.00;99.90
46378;DHT22;32083;47.360;9.650;2023-03-05T00:09:03;2.00;99.90
46378;DHT22;32083;47.360;9.650;2023-03-05T00:11:29;2.10;99.90
46378;DHT22;32083;47.360;9.650;2023-03-05T00:13:56;2.10;99.90
46378;DHT22;32083;47.360;9.650;2023-03-05T00:16:23;2.00;99.90
46378;DHT22;32083;47.360;9.650;2023-03-05T00:18:52;1.90;99.90
46378;DHT22;32083;47.360;9.650;2023-03-05T00:21:25;1.90;99.90
46378;DHT22;32083;47.360;9.650;2023-03-05T00:23:54;2.00;99.90
46378;DHT22;32083;47.360;9.650;2023-03-05T00:26:22;2.00;99.90
46378;DHT22;32083;47.360;9.650;2023-03-05T00:28:48;2.00;99.90
46378;DHT22;32083;47.360;9.650;2023-03-05T00:31:22;2.00;99.90
46378;DHT22;32083;47.360;9.650;2023-03-05T00:34:22;2.00;99.90
46378;DHT22;32083;47.360;9.650;2023-03-05T00:36:51;2.00;99.90
46378;DHT22;32083;47.360;9.650;2023-03-05T00:39:19;2.00;99.90
46378;DHT22;32083;47.360;9.650;2023-03-05T00:41:51;1.90;99.90
46378;DHT22;32083;47.360;9.650;2023-03-05T00:44:17;1.90;99.90
46378;DHT22;32083;47.360;9.650;2023-03-05T00:46:44;2.00;99.90
46378;DHT22;32083;47.360;9.650;2023-03-05T00:49:09;2.00;99.90
46378;DHT22;32083;47.360;9.650;2023-03-05T00:51:39;2.00;99.90
46378;DHT22;32083;47.360;9.650;2023-03-05T00:54:07;2.00;99.90
46378;DHT22;32083;47.360;9.650;2023-03-05T00:56:33;1.90;99.90
46378;DHT22;32083;47.360;9.650;2023-03-05T00:59:00;2.00;99.90
46378;DHT22;32083;47.360;9.650;2023-03-05T01:01:27;2.00;99.90
46378;DHT22;32083;47.360;9.650;2023-03-05T01:03:56;2.10;99.90
46378;DHT22;32083;47.360;9.650;2023-03-05T01:06:24;2.00;99.90
46378;DHT22;32083;47.360;9.650;2023-03-05T01:08:49;2.00;99.90
46378;DHT22;32083;47.360;9.650;2023-03-05T01:11:15;1.90;99.90
46378;DHT22;32083;47.360;9.650;2023-03-05T01:13:42;2.00;99.90
46378;DHT22;32083;47.360;9.650;2023-03-05T01:16:12;2.00;99.90
46378;DHT22;32083;47.360;9.650;2023-03-05T01:18:39;2.00;99.90
46378;DHT22;32083;47.360;9.650;2023-03-05T01:21:06;2.00;99.90
46378;DHT22;32083;47.360;9.650;2023-03-05T01:23:32;2.00;99.90
46378;DHT22;32083;47.360;9.650;2023-03-05T01:26:02;2.00;99.90
46378;DHT22;32083;47.360;9.650;2023-03-05T01:28:28;2.00;99.90
46378;DHT22;32083;47.360;9.650;2023-03-05T01:30:54;2.00;99.90
46378;DHT22;32083;47.360;9.650;2023-03-05T01:33:20;2.00;99.90
46378;DHT22;32083;47.360;9.650;2023-03-05T01:35:48;2.00;99.90
46378;DHT22;32083;47.360;9.650;2023-03-05T01:38:15;2.00;99.90
46378;DHT22;32083;47.360;9.650;2023-03-05T01:40:42;2.00;99.90
46378;DHT22;32083;47.360;9.650;2023-03-05T01:43:19;1.90;99.90
46378;DHT22;32083;47.360;9.650;2023-03-05T01:48:57;2.10;99.90
46378;DHT22;32083;47.360;9.650;2023-03-05T01:51:29;2.10;99.90
46378;DHT22;32083;47.360;9.650;2023-03-05T01:53:59;2.00;99.90
46378;DHT22;32083;47.360;9.650;2023-03-05T01:56:27;2.10;99.90
46378;DHT22;32083;47.360;9.650;2023-03-05T01:58:55;2.10;99.90
46378;DHT22;32083;47.360;9.650;2023-03-05T02:01:32;2.20;99.90
46378;DHT22;32083;47.360;9.650;2023-03-05T02:04:00;2.10;99.90
46378;DHT22;32083;47.360;9.650;2023-03-05T02:06:26;2.20;99.90
46378;DHT22;32083;47.360;9.650;2023-03-05T02:08:55;2.20;99.90
46378;DHT22;32083;47.360;9.650;2023-03-05T02:11:21;2.10;99.90
46378;DHT22;32083;47.360;9.650;2023-03-05T02:13:48;2.10;99.90
46378;DHT22;32083;47.360;9.650;2023-03-05T02:16:15;2.10;99.90
46378;DHT22;32083;47.360;9.650;2023-03-05T02:18:41;2.10;99.90
46378;DHT22;32083;47.360;9.650;2023-03-05T02:21:08;2.10;99.90
46378;DHT22;32083;47.360;9.650;2023-03-05T02:23:36;2.10;99.90
46378;DHT22;32083;47.360;9.650;2023-03-05T02:26:07;2.00;99.90
46378;DHT22;32083;47.360;9.650;2023-03-05T02:28:39;2.00;99.90
46378;DHT22;32083;47.360;9.650;2023-03-05T02:31:14;2.00;99.90
46378;DHT22;32083;47.360;9.650;2023-03-05T02:33:40;2.00;99.90
46378;DHT22;32083;47.360;9.650;2023-03-05T02:36:07;2.00;99.90
46378;DHT22;32083;47.360;9.650;2023-03-05T02:38:33;2.10;99.90
46378;DHT22;32083;47.360;9.650;2023-03-05T02:40:58;2.10;99.90
46378;DHT22;32083;47.360;9.650;2023-03-05T02:43:26;2.10;99.90
46378;DHT22;32083;47.360;9.650;2023-03-05T02:45:52;2.10;99.90
46378;DHT22;32083;47.360;9.650;2023-03-05T02:48:18;2.20;99.90
46378;DHT22;32083;47.360;9.650;2023-03-05T02:50:46;2.20;99.90
46378;DHT22;32083;47.360;9.650;2023-03-05T02:53:15;2.20;99.90
46378;DHT22;32083;47.360;9.650;2023-03-05T02:55:41;2.20;99.90
46378;DHT22;32083;47.360;9.650;2023-03-05T02:58:10;2.20;99.90
46378;DHT22;32083;47.360;9.650;2023-03-05T03:00:39;2.30;99.90
46378;DHT22;32083;47.360;9.650;2023-03-05T03:03:05;2.20;99.90
46378;DHT22;32083;47.360;9.650;2023-03-05T03:05:31;2.20;99.90
46378;DHT22;32083;47.360;9.650;2023-03-05T03:07:57;2.20;99.90
46378;DHT22;32083;47.360;9.650;2023-03-05T03:10:23;2.30;99.90
46378;DHT22;32083;47.360;9.650;2023-03-05T03:12:49;2.30;99.90
46378;DHT22;32083;47.360;9.650;2023-03-05T03:15:15;2.30;99.90
46378;DHT22;32083;47.360;9.650;2023-03-05T03:17:42;2.30;99.90
46378;DHT22;32083;47.360;9.650;2023-03-05T03:20:10;2.30;99.90
46378;DHT22;32083;47.360;9.650;2023-03-05T03:22:41;2.30;99.90
46378;DHT22;32083;47.360;9.650;2023-03-05T03:25:10;2.30;99.90
46378;DHT22;32083;47.360;9.650;2023-03-05T03:27:41;2.30;99.90
46378;DHT22;32083;47.360;9.650;2023-03-05T03:30:07;2.30;99.90
46378;DHT22;32083;47.360;9.650;2023-03-05T03:32:33;2.30;99.90
46378;DHT22;32083;47.360;9.650;2023-03-05T03:34:59;2.30;99.90
46378;DHT22;32083;47.360;9.650;2023-03-05T03:37:25;2.30;99.90
46378;DHT22;32083;47.360;9.650;2023-03-05T03:39:51;2.30;99.90
46378;DHT22;32083;47.360;9.650;2023-03-05T03:42:20;2.30;99.90
46378;DHT22;32083;47.360;9.650;2023-03-05T03:44:49;2.20;99.90
46378;DHT22;32083;47.360;9.650;2023-03-05T03:47:15;2.30;99.90
46378;DHT22;32083;47.360;9.650;2023-03-05T03:49:44;2.20;99.90
46378;DHT22;32083;47.360;9.650;2023-03-05T03:52:09;2.20;99.90
46378;DHT22;32083;47.360;9.650;2023-03-05T03:54:36;2.20;99.90
46378;DHT22;32083;47.360;9.650;2023-03-05T03:57:05;2.30;99.90
46378;DHT22;32083;47.360;9.650;2023-03-05T03:59:33;2.30;99.90
46378;DHT22;32083;47.360;9.650;2023-03-05T04:02:00;2.30;99.90
46378;DHT22;32083;47.360;9.650;2023-03-05T04:04:27;2.30;99.90
46378;DHT22;32083;47.360;9.650;2023-03-05T04:06:55;2.30;99.90
46378;DHT22;32083;47.360;9.650;2023-03-05T04:09:22;2.30;99.90
46378;DHT22;32083;47.360;9.650;2023-03-05T04:11:48;2.30;99.90
46378;DHT22;32083;47.360;9.650;2023-03-05T04:14:14;2.40;99.90
46378;DHT22;32083;47.360;9.650;2023-03-05T04:16:41;2.40;99.90
46378;DHT22;32083;47.360;9.650;2023-03-05T04:19:07;2.40;99.90
46378;DHT22;32083;47.360;9.650;2023-03-05T04:21:32;2.50;99.90
46378;DHT22;32083;47.360;9.650;2023-03-05T04:24:01;2.50;99.90
46378;DHT22;32083;47.360;9.650;2023-03-05T04:26:27;2.50;99.90
46378;DHT22;32083;47.360;9.650;2023-03-05T04:28:54;2.60;99.90
46378;DHT22;32083;47.360;9.650;2023-03-05T04:31:21;2.60;99.90
46378;DHT22;32083;47.360;9.650;2023-03-05T04:33:48;2.70;99.90
46378;DHT22;32083;47.360;9.650;2023-03-05T04:36:16;2.70;99.90
46378;DHT22;32083;47.360;9.650;2023-03-05T04:41:10;2.70;99.90
46378;DHT22;32083;47.360;9.650;2023-03-05T04:43:36;2.70;99.90
46378;DHT22;32083;47.360;9.650;2023-03-05T04:46:02;2.70;99.90
46378;DHT22;32083;47.360;9.650;2023-03-05T04:48:30;2.70;99.90
46378;DHT22;32083;47.360;9.650;2023-03-05T04:50:59;2.70;99.90
46378;DHT22;32083;47.360;9.650;2023-03-05T04:53:34;2.70;99.90
46378;DHT22;32083;47.360;9.650;2023-03-05T04:56:00;2.80;99.90
46378;DHT22;32083;47.360;9.650;2023-03-05T04:58:28;2.80;99.90
46378;DHT22;32083;47.360;9.650;2023-03-05T05:01:02;2.80;99.90
46378;DHT22;32083;47.360;9.650;2023-03-05T05:03:29;2.80;99.90
46378;DHT22;32083;47.360;9.650;2023-03-05T05:05:59;2.70;99.90
46378;DHT22;32083;47.360;9.650;2023-03-05T05:08:28;2.70;99.90
46378;DHT22;32083;47.360;9.650;2023-03-05T05:10:55;2.70;99.90
46378;DHT22;32083;47.360;9.650;2023-03-05T05:13:24;2.70;99.90
46378;DHT22;32083;47.360;9.650;2023-03-05T05:15:51;2.70;99.90
46378;DHT22;32083;47.360;9.650;2023-03-05T05:18:19;2.70;99.90
46378;DHT22;32083;47.360;9.650;2023-03-05T05:20:47;2.70;99.90
46378;DHT22;32083;47.360;9.650;2023-03-05T05:23:16;2.70;99.90
46378;DHT22;32083;47.360;9.650;2023-03-05T05:25:44;2.70;99.90
46378;DHT22;32083;47.360;9.650;2023-03-05T05:28:12;2.70;99.90
46378;DHT22;32083;47.360;9.650;2023-03-05T05:30:38;2.80;99.90
46378;DHT22;32083;47.360;9.650;2023-03-05T05:33:05;2.80;99.90
46378;DHT22;32083;47.360;9.650;2023-03-05T05:35:38;2.70;99.90
46378;DHT22;32083;47.360;9.650;2023-03-05T05:38:04;2.70;99.90
46378;DHT22;32083;47.360;9.650;2023-03-05T05:40:29;2.70;99.90
46378;DHT22;32083;47.360;9.650;2023-03-05T05:42:56;2.70;99.90
46378;DHT22;32083;47.360;9.650;2023-03-05T05:45:22;2.70;99.90
46378;DHT22;32083;47.360;9.650;2023-03-05T05:47:48;2.70;99.90
46378;DHT22;32083;47.360;9.650;2023-03-05T05:50:14;2.70;99.90
46378;DHT22;32083;47.360;9.650;2023-03-05T05:52:41;2.70;99.90
46378;DHT22;32083;47.360;9.650;2023-03-05T05:55:09;2.70;99.90
46378;DHT22;32083;47.360;9.650;2023-03-05T05:57:36;2.70;99.90
46378;DHT22;32083;47.360;9.650;2023-03-05T06:00:07;2.70;99.90
46378;DHT22;32083;47.360;9.650;2023-03-05T06:02:40;2.60;99.90
46378;DHT22;32083;47.360;9.650;2023-03-05T06:05:07;2.60;99.90
46378;DHT22;32083;47.360;9.650;2023-03-05T06:07:34;2.50;99.90
46378;DHT22;32083;47.360;9.650;2023-03-05T06:10:00;2.60;99.90
46378;DHT22;32083;47.360;9.650;2023-03-05T06:12:31;2.50;99.90
46378;DHT22;32083;47.360;9.650;2023-03-05T06:14:59;2.60;99.90
46378;DHT22;32083;47.360;9.650;2023-03-05T06:17:27;2.60;99.90
46378;DHT22;32083;47.360;9.650;2023-03-05T06:19:54;2.70;99.90
46378;DHT22;32083;47.360;9.650;2023-03-05T06:22:20;2.60;99.90
46378;DHT22;32083;47.360;9.650;2023-03-05T06:24:46;2.60;99.90
46378;DHT22;32083;47.360;9.650;2023-03-05T06:27:12;2.70;99.90
46378;DHT22;32083;47.360;9.650;2023-03-05T06:29:38;2.70;99.90
46378;DHT22;32083;47.360;9.650;2023-03-05T06:32:05;2.70;99.90
46378;DHT22;32083;47.360;9.650;2023-03-05T06:34:31;2.70;99.90
46378;DHT22;32083;47.360;9.650;2023-03-05T06:36:57;2.70;99.90
46378;DHT22;32083;47.360;9.650;2023-03-05T06:39:23;2.70;99.90
46378;DHT22;32083;47.360;9.650;2023-03-05T06:41:50;2.70;99.90
46378;DHT22;32083;47.360;9.650;2023-03-05T06:44:17;2.70;99.90
46378;DHT22;32083;47.360;9.650;2023-03-05T06:46:43;2.80;99.90
46378;DHT22;32083;47.360;9.650;2023-03-05T06:49:09;2.80;99.90
46378;DHT22;32083;47.360;9.650;2023-03-05T06:51:37;2.80;99.90
46378;DHT22;32083;47.360;9.650;2023-03-05T06:54:08;2.90;99.90
46378;DHT22;32083;47.360;9.650;2023-03-05T06:56:46;2.90;99.90
46378;DHT22;32083;47.360;9.650;2023-03-05T06:59:14;2.90;99.90
46378;DHT22;32083;47.360;9.650;2023-03-05T07:01:43;2.90;99.90
46378;DHT22;32083;47.360;9.650;2023-03-05T07:04:11;2.90;99.90
46378;DHT22;32083;47.360;9.650;2023-03-05T07:06:41;3.00;99.90
46378;DHT22;32083;47.360;9.650;2023-03-05T07:09:09;3.00;99.90
46378;DHT22;32083;47.360;9.650;2023-03-05T07:11:35;3.00;99.90
46378;DHT22;32083;47.360;9.650;2023-03-05T07:14:02;3.00;99.90
46378;DHT22;32083;47.360;9.650;2023-03-05T07:16:32;3.00;99.90
46378;DHT22;32083;47.360;9.650;2023-03-05T07:19:01;3.00;99.90
46378;DHT22;32083;47.360;9.650;2023-03-05T07:21:33;3.00;99.90
46378;DHT22;32083;47.360;9.650;2023-03-05T07:24:01;3.00;99.90
46378;DHT22;32083;47.360;9.650;2023-03-05T07:26:30;3.00;99.90
46378;DHT22;32083;47.360;9.650;2023-03-05T07:29:01;3.10;99.90
46378;DHT22;32083;47.360;9.650;2023-03-05T07:31:30;3.10;99.90
46378;DHT22;32083;47.360;9.650;2023-03-05T07:33:58;3.10;99.90
46378;DHT22;32083;47.360;9.650;2023-03-05T07:36:25;3.00;99.90
46378;DHT22;32083;47.360;9.650;2023-03-05T07:38:51;3.00;99.90
46378;DHT22;32083;47.360;9.650;2023-03-05T07:41:18;3.10;99.90
46378;DHT22;32083;47.360;9.650;2023-03-05T07:43:46;3.10;99.90
46378;DHT22;32083;47.360;9.650;2023-03-05T07:46:14;3.00;99.90
46378;DHT22;32083;47.360;9.650;2023-03-05T07:48:41;2.90;99.90
46378;DHT22;32083;47.360;9.650;2023-03-05T07:51:13;2.80;99.90
46378;DHT22;32083;47.360;9.650;2023-03-05T07:53:41;2.80;99.90
46378;DHT22;32083;47.360;9.650;2023-03-05T07:56:08;2.90;99.90
46378;DHT22;32083;47.360;9.650;2023-03-05T07:58:34;3.00;99.90
46378;DHT22;32083;47.360;9.650;2023-03-05T08:01:00;3.00;99.90
46378;DHT22;32083;47.360;9.650;2023-03-05T08:03:26;3.10;99.90
46378;DHT22;32083;47.360;9.650;2023-03-05T08:05:52;3.00;99.90
46378;DHT22;32083;47.360;9.650;2023-03-05T08:08:18;3.00;99.90
46378;DHT22;32083;47.360;9.650;2023-03-05T08:10:44;3.10;99.90
46378;DHT22;32083;47.360;9.650;2023-03-05T08:13:10;3.10;99.90
46378;DHT22;32083;47.360;9.650;2023-03-05T08:15:37;3.20;99.90
46378;DHT22;32083;47.360;9.650;2023-03-05T08:18:03;3.30;99.90
46378;DHT22;32083;47.360;9.650;2023-03-05T08:20:29;3.40;99.90
46378;DHT22;32083;47.360;9.650;2023-03-05T08:22:55;3.40;99.90
46378;DHT22;32083;47.360;9.650;2023-03-05T08:25:21;3.40;99.90
46378;DHT22;32083;47.360;9.650;2023-03-05T08:27:48;3.50;99.90
46378;DHT22;32083;47.360;9.650;2023-03-05T08:30:17;3.60;99.90
46378;DHT22;32083;47.360;9.650;2023-03-05T08:32:44;3.60;99.90
46378;DHT22;32083;47.360;9.650;2023-03-05T08:35:10;3.60;99.90
46378;DHT22;32083;47.360;9.650;2023-03-05T08:37:36;3.70;99.90
46378;DHT22;32083;47.360;9.650;2023-03-05T08:40:02;3.60;99.90
46378;DHT22;32083;47.360;9.650;2023-03-05T08:42:29;3.70;99.90
46378;DHT22;32083;47.360;9.650;2023-03-05T08:44:55;3.80;99.90
46378;DHT22;32083;47.360;9.650;2023-03-05T08:47:21;3.70;99.90
46378;DHT22;32083;47.360;9.650;2023-03-05T08:49:50;3.70;99.90
46378;DHT22;32083;47.360;9.650;2023-03-05T08:52:20;3.80;99.90
46378;DHT22;32083;47.360;9.650;2023-03-05T08:54:47;3.90;99.90
46378;DHT22;32083;47.360;9.650;2023-03-05T08:57:12;4.10;99.90
46378;DHT22;32083;47.360;9.650;2023-03-05T08:59:38;4.20;99.90
46378;DHT22;32083;47.360;9.650;2023-03-05T09:02:04;4.20;99.90
46378;DHT22;32083;47.360;9.650;2023-03-05T09:04:30;4.40;99.90
46378;DHT22;32083;47.360;9.650;2023-03-05T09:06:56;4.30;99.90
46378;DHT22;32083;47.360;9.650;2023-03-05T09:09:22;4.50;99.90
46378;DHT22;32083;47.360;9.650;2023-03-05T09:11:49;4.70;99.90
46378;DHT22;32083;47.360;9.650;2023-03-05T09:14:17;4.80;99.90
46378;DHT22;32083;47.360;9.650;2023-03-05T09:16:42;4.80;99.90
46378;DHT22;32083;47.360;9.650;2023-03-05T09:19:08;4.90;99.90
46378;DHT22;32083;47.360;9.650;2023-03-05T09:21:36;5.00;99.90
46378;DHT22;32083;47.360;9.650;2023-03-05T09:24:02;5.10;99.90
46378;DHT22;32083;47.360;9.650;2023-03-05T09:26:28;5.00;99.90
46378;DHT22;32083;47.360;9.650;2023-03-05T09:28:55;5.10;99.90
46378;DHT22;32083;47.360;9.650;2023-03-05T09:31:20;5.30;99.90
46378;DHT22;32083;47.360;9.650;2023-03-05T09:33:47;5.20;99.90
46378;DHT22;32083;47.360;9.650;2023-03-05T09:36:17;5.00;99.90
46378;DHT22;32083;47.360;9.650;2023-03-05T09:38:44;4.90;99.90
46378;DHT22;32083;47.360;9.650;2023-03-05T09:41:27;4.90;99.90
46378;DHT22;32083;47.360;9.650;2023-03-05T09:45:02;4.90;99.90
46378;DHT22;32083;47.360;9.650;2023-03-05T09:52:40;5.20;99.90
46378;DHT22;32083;47.360;9.650;2023-03-05T09:55:37;5.30;99.90
46378;DHT22;32083;47.360;9.650;2023-03-05T10:06:44;5.40;99.90
46378;DHT22;32083;47.360;9.650;2023-03-05T10:09:30;5.60;99.90
46378;DHT22;32083;47.360;9.650;2023-03-05T10:14:35;5.40;99.90
46378;DHT22;32083;47.360;9.650;2023-03-05T10:27:49;5.30;99.90
46378;DHT22;32083;47.360;9.650;2023-03-05T10:41:20;5.50;99.90
46378;DHT22;32083;47.360;9.650;2023-03-05T10:44:10;5.50;99.90
46378;DHT22;32083;47.360;9.650;2023-03-05T10:46:40;5.60;99.90
46378;DHT22;32083;47.360;9.650;2023-03-05T10:49:29;5.60;99.70
46378;DHT22;32083;47.360;9.650;2023-03-05T10:54:29;5.70;99.50
46378;DHT22;32083;47.360;9.650;2023-03-05T10:57:04;5.80;99.10
46378;DHT22;32083;47.360;9.650;2023-03-05T10:59:31;5.80;99.30
46378;DHT22;32083;47.360;9.650;2023-03-05T11:02:05;5.70;99.20
46378;DHT22;32083;47.360;9.650;2023-03-05T11:04:35;5.70;99.80
46378;DHT22;32083;47.360;9.650;2023-03-05T11:09:40;5.80;99.90
46378;DHT22;32083;47.360;9.650;2023-03-05T11:12:21;5.80;99.30
46378;DHT22;32083;47.360;9.650;2023-03-05T11:17:40;5.50;99.90
46378;DHT22;32083;47.360;9.650;2023-03-05T11:20:30;5.70;99.90
46378;DHT22;32083;47.360;9.650;2023-03-05T11:25:29;5.70;99.20
46378;DHT22;32083;47.360;9.650;2023-03-05T11:27:57;5.70;98.10
46378;DHT22;32083;47.360;9.650;2023-03-05T11:30:33;5.70;98.80
46378;DHT22;32083;47.360;9.650;2023-03-05T11:33:29;5.70;99.10
46378;DHT22;32083;47.360;9.650;2023-03-05T11:41:39;5.50;98.60
46378;DHT22;32083;47.360;9.650;2023-03-05T11:44:19;5.40;98.40
46378;DHT22;32083;47.360;9.650;2023-03-05T11:46:52;5.50;98.30
46378;DHT22;32083;47.360;9.650;2023-03-05T11:49:26;5.60;98.50
46378;DHT22;32083;47.360;9.650;2023-03-05T11:52:23;5.70;98.90
46378;DHT22;32083;47.360;9.650;2023-03-05T11:57:26;5.90;98.00
46378;DHT22;32083;47.360;9.650;2023-03-05T11:59:57;6.00;98.30
46378;DHT22;32083;47.360;9.650;2023-03-05T12:02:25;6.00;98.40
46378;DHT22;32083;47.360;9.650;2023-03-05T12:04:51;6.10;97.90
46378;DHT22;32083;47.360;9.650;2023-03-05T12:07:39;5.90;97.80
46378;DHT22;32083;47.360;9.650;2023-03-05T12:10:16;5.90;97.90
46378;DHT22;32083;47.360;9.650;2023-03-05T12:13:04;5.90;97.50
46378;DHT22;32083;47.360;9.650;2023-03-05T12:18:17;6.00;97.90
46378;DHT22;32083;47.360;9.650;2023-03-05T12:23:26;6.30;98.70
46378;DHT22;32083;47.360;9.650;2023-03-05T12:25:57;6.20;97.30
46378;DHT22;32083;47.360;9.650;2023-03-05T12:31:24;6.20;98.10
46378;DHT22;32083;47.360;9.650;2023-03-05T12:33:50;6.30;98.10
46378;DHT22;32083;47.360;9.650;2023-03-05T12:38:43;6.30;97.30
46378;DHT22;32083;47.360;9.650;2023-03-05T12:47:17;6.40;97.30
46378;DHT22;32083;47.360;9.650;2023-03-05T12:51:51;6.40;96.40
46378;DHT22;32083;47.360;9.650;2023-03-05T12:54:36;6.50;97.60
46378;DHT22;32083;47.360;9.650;2023-03-05T12:57:20;6.70;97.10
46378;DHT22;32083;47.360;9.650;2023-03-05T12:59:58;6.80;96.90
46378;DHT22;32083;47.360;9.650;2023-03-05T13:02:56;6.90;96.80
46378;DHT22;32083;47.360;9.650;2023-03-05T13:05:28;6.90;96.40
46378;DHT22;32083;47.360;9.650;2023-03-05T13:10:34;7.00;97.00
46378;DHT22;32083;47.360;9.650;2023-03-05T13:13:00;7.00;96.20
46378;DHT22;32083;47.360;9.650;2023-03-05T13:15:27;7.10;96.60
46378;DHT22;32083;47.360;9.650;2023-03-05T13:18:20;7.10;95.70
46378;DHT22;32083;47.360;9.650;2023-03-05T13:20:47;7.20;96.00
46378;DHT22;32083;47.360;9.650;2023-03-05T13:23:25;7.20;94.90
46378;DHT22;32083;47.360;9.650;2023-03-05T13:26:21;7.10;94.70
46378;DHT22;32083;47.360;9.650;2023-03-05T13:31:56;7.10;94.30
46378;DHT22;32083;47.360;9.650;2023-03-05T13:34:32;7.00;93.70
46378;DHT22;32083;47.360;9.650;2023-03-05T13:36:59;7.10;93.50
46378;DHT22;32083;47.360;9.650;2023-03-05T13:39:37;7.10;93.20
46378;DHT22;32083;47.360;9.650;2023-03-05T13:42:15;7.10;93.80
46378;DHT22;32083;47.360;9.650;2023-03-05T13:44:42;7.00;92.60
46378;DHT22;32083;47.360;9.650;2023-03-05T13:47:14;7.00;93.40
46378;DHT22;32083;47.360;9.650;2023-03-05T13:49:42;7.00;92.60
46378;DHT22;32083;47.360;9.650;2023-03-05T13:52:09;7.10;92.90
46378;DHT22;32083;47.360;9.650;2023-03-05T13:54:35;7.20;93.30
46378;DHT22;32083;47.360;9.650;2023-03-05T13:57:04;7.20;93.30
46378;DHT22;32083;47.360;9.650;2023-03-05T13:59:35;7.20;92.80
46378;DHT22;32083;47.360;9.650;2023-03-05T14:02:17;7.30;92.90
46378;DHT22;32083;47.360;9.650;2023-03-05T14:04:45;7.20;92.30
46378;DHT22;32083;47.360;9.650;2023-03-05T14:07:39;7.30;91.90
46378;DHT22;32083;47.360;9.650;2023-03-05T14:10:29;7.40;92.70
46378;DHT22;32083;47.360;9.650;2023-03-05T14:12:56;7.30;92.00
46378;DHT22;32083;47.360;9.650;2023-03-05T14:15:34;7.30;92.80
46378;DHT22;32083;47.360;9.650;2023-03-05T14:20:39;7.40;93.20
46378;DHT22;32083;47.360;9.650;2023-03-05T14:25:51;7.30;92.80
46378;DHT22;32083;47.360;9.650;2023-03-05T14:30:45;7.30;91.60
46378;DHT22;32083;47.360;9.650;2023-03-05T14:33:12;7.40;93.20
46378;DHT22;32083;47.360;9.650;2023-03-05T14:35:38;7.40;91.80
46378;DHT22;32083;47.360;9.650;2023-03-05T14:38:05;7.40;92.50
46378;DHT22;32083;47.360;9.650;2023-03-05T14:40:34;7.30;91.50
46378;DHT22;32083;47.360;9.650;2023-03-05T14:43:01;7.40;92.10
46378;DHT22;32083;47.360;9.650;2023-03-05T14:45:36;7.30;91.50
46378;DHT22;32083;47.360;9.650;2023-03-05T14:48:05;7.30;92.20
46378;DHT22;32083;47.360;9.650;2023-03-05T14:50:36;7.30;92.00
46378;DHT22;32083;47.360;9.650;2023-03-05T14:53:12;7.50;91.60
46378;DHT22;32083;47.360;9.650;2023-03-05T14:55:39;7.40;91.60
46378;DHT22;32083;47.360;9.650;2023-03-05T14:58:14;7.20;91.20
46378;DHT22;32083;47.360;9.650;2023-03-05T15:00:42;7.10;91.30
46378;DHT22;32083;47.360;9.650;2023-03-05T15:03:12;7.20;91.60
46378;DHT22;32083;47.360;9.650;2023-03-05T15:05:39;7.00;91.60
46378;DHT22;32083;47.360;9.650;2023-03-05T15:08:29;7.00;92.00
46378;DHT22;32083;47.360;9.650;2023-03-05T15:10:56;7.10;92.00
46378;DHT22;32083;47.360;9.650;2023-03-05T15:13:22;7.20;92.00
46378;DHT22;32083;47.360;9.650;2023-03-05T15:15:49;7.00;91.80
46378;DHT22;32083;47.360;9.650;2023-03-05T15:18:18;7.10;92.10
46378;DHT22;32083;47.360;9.650;2023-03-05T15:20:45;7.00;92.10
46378;DHT22;32083;47.360;9.650;2023-03-05T15:23:14;6.90;92.60
46378;DHT22;32083;47.360;9.650;2023-03-05T15:25:40;7.10;92.70
46378;DHT22;32083;47.360;9.650;2023-03-05T15:28:06;7.20;92.60
46378;DHT22;32083;47.360;9.650;2023-03-05T15:30:38;7.20;92.40
46378;DHT22;32083;47.360;9.650;2023-03-05T15:33:07;7.20;91.90
46378;DHT22;32083;47.360;9.650;2023-03-05T15:35:33;7.10;91.10
46378;DHT22;32083;47.360;9.650;2023-03-05T15:37:59;7.20;91.30
46378;DHT22;32083;47.360;9.650;2023-03-05T15:40:25;7.10;91.00
46378;DHT22;32083;47.360;9.650;2023-03-05T15:42:53;7.00;91.20
46378;DHT22;32083;47.360;9.650;2023-03-05T15:45:19;7.00;91.20
46378;DHT22;32083;47.360;9.650;2023-03-05T15:47:48;7.10;93.40
46378;DHT22;32083;47.360;9.650;2023-03-05T15:50:14;7.10;92.50
46378;DHT22;32083;47.360;9.650;2023-03-05T15:52:40;7.00;91.90
46378;DHT22;32083;47.360;9.650;2023-03-05T15:55:06;7.00;91.60
46378;DHT22;32083;47.360;9.650;2023-03-05T15:57:37;7.00;91.00
46378;DHT22;32083;47.360;9.650;2023-03-05T16:00:07;6.90;90.40
46378;DHT22;32083;47.360;9.650;2023-03-05T16:02:33;6.80;90.50
46378;DHT22;32083;47.360;9.650;2023-03-05T16:05:00;6.70;90.40
46378;DHT22;32083;47.360;9.650;2023-03-05T16:07:26;6.70;90.30
46378;DHT22;32083;47.360;9.650;2023-03-05T16:09:53;6.60;90.40
46378;DHT22;32083;47.360;9.650;2023-03-05T16:12:24;6.60;90.70
46378;DHT22;32083;47.360;9.650;2023-03-05T16:14:50;6.60;91.20
46378;DHT22;32083;47.360;9.650;2023-03-05T16:17:18;6.50;91.30
46378;DHT22;32083;47.360;9.650;2023-03-05T16:19:47;6.50;91.20
46378;DHT22;32083;47.360;9.650;2023-03-05T16:22:13;6.50;91.70
46378;DHT22;32083;47.360;9.650;2023-03-05T16:24:39;6.40;91.90
46378;DHT22;32083;47.360;9.650;2023-03-05T16:27:05;6.40;92.00
46378;DHT22;32083;47.360;9.650;2023-03-05T16:29:32;6.30;91.10
46378;DHT22;32083;47.360;9.650;2023-03-05T16:32:00;6.30;91.00
46378;DHT22;32083;47.360;9.650;2023-03-05T16:34:26;6.20;90.90
46378;DHT22;32083;47.360;9.650;2023-03-05T16:36:52;6.20;91.00
46378;DHT22;32083;47.360;9.650;2023-03-05T16:39:20;6.20;91.40
46378;DHT22;32083;47.360;9.650;2023-03-05T16:41:46;6.20;91.70
46378;DHT22;32083;47.360;9.650;2023-03-05T16:44:14;6.10;92.20
46378;DHT22;32083;47.360;9.650;2023-03-05T16:46:39;6.10;92.20
46378;DHT22;32083;47.360;9.650;2023-03-05T16:49:06;6.00;92.40
46378;DHT22;32083;47.360;9.650;2023-03-05T16:51:38;6.00;92.80
46378;DHT22;32083;47.360;9.650;2023-03-05T16:54:04;5.90;93.30
46378;DHT22;32083;47.360;9.650;2023-03-05T16:56:30;5.80;93.50
46378;DHT22;32083;47.360;9.650;2023-03-05T16:58:56;5.70;93.60
46378;DHT22;32083;47.360;9.650;2023-03-05T17:01:22;5.70;93.20
46378;DHT22;32083;47.360;9.650;2023-03-05T17:03:49;5.70;93.50
46378;DHT22;32083;47.360;9.650;2023-03-05T17:06:22;5.60;92.90
46378;DHT22;32083;47.360;9.650;2023-03-05T17:08:49;5.50;92.90
46378;DHT22;32083;47.360;9.650;2023-03-05T17:11:16;5.60;93.70
46378;DHT22;32083;47.360;9.650;2023-03-05T17:13:42;5.50;93.30
46378;DHT22;32083;47.360;9.650;2023-03-05T17:16:11;5.50;93.50
46378;DHT22;32083;47.360;9.650;2023-03-05T17:18:37;5.50;93.90
46378;DHT22;32083;47.360;9.650;2023-03-05T17:21:04;5.50;94.40
46378;DHT22;32083;47.360;9.650;2023-03-05T17:23:30;5.50;94.50
46378;DHT22;32083;47.360;9.650;2023-03-05T17:25:56;5.50;94.40
46378;DHT22;32083;47.360;9.650;2023-03-05T17:28:22;5.50;94.30
46378;DHT22;32083;47.360;9.650;2023-03-05T17:30:49;5.30;93.90
46378;DHT22;32083;47.360;9.650;2023-03-05T17:33:15;5.30;94.00